Meteo Giornale » Osservazioni meteo Stati Uniti (USA) » Aurora State
ore: 06:53 - Osservazioni Meteo Aurora State
Lat. 45° 14' N Lon. 122° 45' W Alt. 59 metri s.l.m.
16 °C
Coperto
Temp. 24 Ore
12 °C
28 °C
Sud
7.4 Km/h
Dew point 12 °C
Umidità 77 %
Visibilità 10 Km
Il sole sorge alle ore 06:33
Il sole tramonta alle ore 19:48
| Data e Ora | Cielo e Fenomeni | T °C | DP °C | Um. % | Pres. hPa | Vis. km | Vento km/h | |
|---|---|---|---|---|---|---|---|---|
| Oggi h: 06:53 | Coperto | 16 | 12 | 77 | 1011 | 10 | S 7.4 | |
| Oggi h: 06:17 | Coperto | 15 | 12 | 82 | 1011 | 10 | S/SO 7.4 | |
| Oggi h: 05:53 | Coperto | 15 | 12 | 82 | 1011 | 10 | S 9.3 | |
| Oggi h: 05:25 | Coperto | 15 | 12 | 82 | 1011 | 10 | S/SO 11.1 | |
| Oggi h: 04:53 | Coperto | 15 | 12 | 82 | 1011 | 10 | S 14.8 | |
| Oggi h: 04:13 | Molto Nuvoloso | 14 | 12 | 87 | 1011 | 10 | S 13 | |
| Oggi h: 03:53 | Sereno | 13 | 11 | 87 | 1011 | 10 | S 11.1 | |
| Oggi h: 02:53 | Sereno | 14 | 12 | 87 | 1011 | 10 | S 11.1 | |
| Oggi h: 01:53 | Sereno | 14 | 12 | 87 | 1010 | 10 | S/SO 9.3 | |
| Oggi h: 00:53 | Sereno | 15 | 12 | 82 | 1010 | 10 | S/SO 11.1 | |
| Ieri h: 23:53 | Sereno | 16 | 12 | 77 | 1010 | 10 | S/SO 9.3 | |
| Ieri h: 22:53 | Sereno | 16 | 12 | 77 | 1009 | 10 | S 11.1 | |
| Ieri h: 21:53 | Sereno | 18 | 12 | 67 | 1008 | 10 | S/SO 13 | |
| Ieri h: 20:53 | Sereno | 21 | 12 | 56 | 1008 | 10 | SO 13 | |
| Ieri h: 20:01 | Foschia | 23 | 12 | 49 | 1007 | 6 | SO 9.3 | |
| Ieri h: 19:53 | Foschia | 23 | 12 | 49 | 1007 | 2 | O/SO 7.4 | |
| Ieri h: 18:53 | Foschia | 27 | 11 | 36 | 1007 | 2 | N 0 | |
| Ieri h: 18:34 | Foschia | 27 | 11 | 36 | 1007 | 3 | N 5.5 | |
| Ieri h: 18:16 | Foschia | 27 | 11 | 36 | 1007 | 3 | N 0 | |
| Ieri h: 17:53 | Foschia | 27 | 11 | 36 | 1007 | 3 | S 7.4 | |
| Ieri h: 17:31 | Foschia | 27 | 11 | 36 | 1007 | 3 | N 7.4 | |
| Ieri h: 16:53 | Foschia | 27 | 11 | 36 | 1007 | 3 | N 5.5 | |
| Ieri h: 16:49 | Foschia | 27 | 11 | 36 | 1007 | 3 | N 5.5 | |
| Ieri h: 15:53 | Foschia | 28 | 11 | 34 | 1007 | 2 | N 0 | |
| Ieri h: 14:53 | Foschia | 26 | 12 | 41 | 1008 | 6 | S 7.4 | |
| Ieri h: 13:53 | Sereno | 25 | 11 | 41 | 1009 | 11 | N 5.5 | |
| Ieri h: 12:53 | Sereno | 23 | 11 | 46 | 1009 | 10 | E/SE 7.4 | |
| Ieri h: 11:53 | Sereno | 21 | 12 | 56 | 1010 | 10 | N 5.5 | |
| Ieri h: 10:53 | Sereno | 20 | 11 | 56 | 1010 | 10 | E/NE 11.1 | |
| Ieri h: 10:12 | Poco Nuvoloso | 18 | 11 | 63 | 1011 | 0 | N/NE 7.4 | |
| Ieri h: 09:53 | Sereno | 17 | 11 | 67 | 1011 | 10 | N 0 | |
| Ieri h: 08:53 | Sereno | 14 | 11 | 82 | 1011 | 10 | N 0 | |
| Ieri h: 07:53 | Sereno | 12 | 10 | 87 | 1012 | 10 | N 0 | |



